createdAt,value
2022-10-16T00:01:25.256Z,13.10
2022-10-16T00:03:53.220Z,13.20
2022-10-16T00:06:22.576Z,13.20
2022-10-16T00:08:50.749Z,13.20
2022-10-16T00:11:25.792Z,13.10
2022-10-16T00:13:56.920Z,13.10
2022-10-16T00:16:24.671Z,13.10
2022-10-16T00:18:51.831Z,13.10
2022-10-16T00:21:22.671Z,13.00
2022-10-16T00:23:56.001Z,13.00
2022-10-16T00:26:23.905Z,13.00
2022-10-16T00:28:52.445Z,12.90
2022-10-16T00:31:21.847Z,12.90
2022-10-16T00:33:49.891Z,12.90
2022-10-16T00:36:20.617Z,12.90
2022-10-16T00:38:48.006Z,12.90
2022-10-16T00:41:17.681Z,12.80
2022-10-16T00:43:47.316Z,12.80
2022-10-16T00:46:21.874Z,12.70
2022-10-16T00:49:17.056Z,12.70
2022-10-16T00:51:53.146Z,12.70
2022-10-16T00:54:28.488Z,12.70
2022-10-16T00:56:57.592Z,12.60
2022-10-16T00:59:37.524Z,12.50
2022-10-16T01:02:07.172Z,12.60
2022-10-16T01:04:46.874Z,12.60
2022-10-16T01:07:38.268Z,12.50
2022-10-16T01:10:17.685Z,12.60
2022-10-16T01:12:51.766Z,12.50
2022-10-16T01:15:36.879Z,12.50
2022-10-16T01:18:17.923Z,12.50
2022-10-16T01:21:21.069Z,12.50
2022-10-16T01:24:09.875Z,12.50
2022-10-16T01:27:02.884Z,12.50
2022-10-16T01:29:41.867Z,12.50
2022-10-16T01:32:40.652Z,12.50
2022-10-16T01:35:19.266Z,12.50
2022-10-16T01:37:52.660Z,12.50
2022-10-16T01:40:22.172Z,12.50
2022-10-16T01:43:12.021Z,12.50
2022-10-16T01:45:41.605Z,12.50
2022-10-16T01:48:11.443Z,12.50
2022-10-16T01:50:40.948Z,12.40
2022-10-16T01:53:10.963Z,12.40
2022-10-16T01:55:45.818Z,12.40
2022-10-16T01:58:14.680Z,12.40
2022-10-16T02:00:45.223Z,12.40
2022-10-16T02:03:15.254Z,12.50
2022-10-16T02:05:52.315Z,12.40
2022-10-16T02:08:20.548Z,12.40
2022-10-16T02:10:48.316Z,12.30
2022-10-16T02:13:27.204Z,12.30
2022-10-16T02:15:54.571Z,12.20
2022-10-16T02:18:22.347Z,12.20
2022-10-16T02:21:00.209Z,12.30
2022-10-16T02:23:55.364Z,12.20
2022-10-16T02:26:49.809Z,12.20
2022-10-16T02:29:22.296Z,12.20
2022-10-16T02:31:53.588Z,12.20
2022-10-16T02:34:23.236Z,12.20
2022-10-16T02:36:51.678Z,12.20
2022-10-16T02:39:20.632Z,12.20
2022-10-16T02:41:48.931Z,12.20
2022-10-16T02:44:16.080Z,12.20
2022-10-16T02:46:43.217Z,12.30
2022-10-16T02:49:10.402Z,12.20
2022-10-16T02:51:37.593Z,12.30
2022-10-16T02:54:04.907Z,12.30
2022-10-16T02:56:32.189Z,12.30
2022-10-16T02:58:59.325Z,12.30
2022-10-16T03:01:26.551Z,12.20
2022-10-16T03:03:53.772Z,12.20
2022-10-16T03:06:20.961Z,12.40
2022-10-16T03:08:48.184Z,12.30
2022-10-16T03:11:15.347Z,12.20
2022-10-16T03:13:42.508Z,12.20
2022-10-16T03:16:09.652Z,12.20
2022-10-16T03:18:36.875Z,12.10
2022-10-16T03:21:04.260Z,12.20
2022-10-16T03:26:03.511Z,12.00
2022-10-16T03:28:30.952Z,12.10
2022-10-16T03:30:58.159Z,12.10
2022-10-16T03:33:25.313Z,12.20
2022-10-16T03:35:56.023Z,12.00
2022-10-16T03:38:23.335Z,12.10
2022-10-16T03:40:50.499Z,12.00
2022-10-16T03:43:17.764Z,12.10
2022-10-16T03:45:44.935Z,12.10
2022-10-16T03:48:12.168Z,12.10
2022-10-16T03:50:39.543Z,12.10
2022-10-16T03:53:06.732Z,12.20
2022-10-16T03:55:34.025Z,12.20
2022-10-16T03:58:01.387Z,12.20
2022-10-16T04:00:28.568Z,12.30
2022-10-16T04:02:55.700Z,12.40
2022-10-16T04:05:22.932Z,12.40
2022-10-16T04:07:50.132Z,12.40
2022-10-16T04:10:17.424Z,12.40
2022-10-16T04:12:44.651Z,12.50
2022-10-16T04:15:12.157Z,12.40
2022-10-16T04:17:39.336Z,12.50
2022-10-16T04:20:06.994Z,12.50
2022-10-16T04:22:34.231Z,12.50
2022-10-16T04:25:01.454Z,12.50
2022-10-16T04:27:29.555Z,12.60
2022-10-16T04:29:58.529Z,12.60
2022-10-16T04:32:25.731Z,12.70
2022-10-16T04:34:53.284Z,12.70
2022-10-16T04:37:24.346Z,12.70
2022-10-16T04:39:51.883Z,12.70
2022-10-16T04:42:19.082Z,12.70
2022-10-16T04:44:46.222Z,12.70
2022-10-16T04:47:13.982Z,12.70
2022-10-16T04:49:41.517Z,12.80
2022-10-16T04:52:10.529Z,12.70
2022-10-16T04:54:37.678Z,12.80
2022-10-16T04:57:05.825Z,12.80
2022-10-16T04:59:33.059Z,12.80
2022-10-16T05:02:00.263Z,12.80
2022-10-16T05:04:27.412Z,12.80
2022-10-16T05:06:54.583Z,12.90
2022-10-16T05:09:22.116Z,12.90
2022-10-16T05:11:49.959Z,12.80
2022-10-16T05:14:17.141Z,12.80
2022-10-16T05:16:44.352Z,12.90
2022-10-16T05:19:28.415Z,13.00
2022-10-16T05:21:56.495Z,13.00
2022-10-16T05:24:23.873Z,13.00
2022-10-16T05:26:51.947Z,13.00
2022-10-16T05:29:19.617Z,13.00
2022-10-16T05:31:46.843Z,13.10
2022-10-16T05:34:14.003Z,13.10
2022-10-16T05:36:41.159Z,13.10
2022-10-16T05:39:08.357Z,13.00
2022-10-16T05:41:35.500Z,13.20
2022-10-16T05:44:06.628Z,13.10
2022-10-16T05:46:34.353Z,13.20
2022-10-16T05:49:01.672Z,13.10
2022-10-16T05:51:28.832Z,13.20
2022-10-16T05:53:55.980Z,13.10
2022-10-16T05:56:23.187Z,13.10
2022-10-16T05:58:50.551Z,13.10
2022-10-16T06:01:19.423Z,13.30
2022-10-16T06:03:46.676Z,13.10
2022-10-16T06:06:14.148Z,13.10
2022-10-16T06:08:42.757Z,13.10
2022-10-16T06:11:12.772Z,13.10
2022-10-16T06:13:42.644Z,13.20
2022-10-16T06:16:11.495Z,13.10
2022-10-16T06:18:39.341Z,13.20
2022-10-16T06:21:16.912Z,13.10
2022-10-16T06:26:19.811Z,13.10
2022-10-16T06:28:47.839Z,13.20
2022-10-16T06:31:16.127Z,13.20
2022-10-16T06:33:43.420Z,13.30
2022-10-16T06:36:13.227Z,13.30
2022-10-16T06:38:40.961Z,13.30
2022-10-16T06:41:12.485Z,13.50
2022-10-16T06:43:40.009Z,13.40
2022-10-16T06:46:10.528Z,13.50
2022-10-16T06:48:38.502Z,13.60
2022-10-16T06:51:09.701Z,13.60
2022-10-16T06:53:39.762Z,13.70
2022-10-16T06:56:17.595Z,13.80
2022-10-16T06:58:45.540Z,13.70
2022-10-16T07:01:13.512Z,13.70
2022-10-16T07:03:42.819Z,13.70
2022-10-16T07:06:12.371Z,13.90
2022-10-16T07:08:45.041Z,13.80
2022-10-16T07:11:14.979Z,13.80
2022-10-16T07:13:44.268Z,13.90
2022-10-16T07:16:23.777Z,13.90
2022-10-16T07:18:55.105Z,13.90
2022-10-16T07:21:23.961Z,14.00
2022-10-16T07:23:52.347Z,14.30
2022-10-16T07:26:19.967Z,14.30
2022-10-16T07:28:47.381Z,14.30
2022-10-16T07:31:16.349Z,14.50
2022-10-16T07:33:45.984Z,14.50
2022-10-16T07:36:16.378Z,14.70
2022-10-16T07:38:44.578Z,14.80
2022-10-16T07:41:14.292Z,14.80
2022-10-16T07:43:41.631Z,14.90
2022-10-16T07:46:08.979Z,15.10
2022-10-16T07:48:36.752Z,15.10
2022-10-16T07:51:06.814Z,15.20
2022-10-16T07:53:34.420Z,15.40
2022-10-16T07:56:04.102Z,15.50
2022-10-16T07:58:31.660Z,15.60
2022-10-16T08:00:59.506Z,15.60
2022-10-16T08:03:26.870Z,15.80
2022-10-16T08:05:54.120Z,15.90
2022-10-16T08:08:21.331Z,15.90
2022-10-16T08:10:48.551Z,16.00
2022-10-16T08:13:16.316Z,16.10
2022-10-16T08:15:44.773Z,16.30
2022-10-16T08:18:13.518Z,16.40
2022-10-16T08:20:41.627Z,16.60
2022-10-16T08:23:10.463Z,16.70
2022-10-16T08:25:38.249Z,16.80
2022-10-16T08:28:07.008Z,16.90
2022-10-16T08:30:34.899Z,17.00
2022-10-16T08:33:02.950Z,17.10
2022-10-16T08:35:30.153Z,17.30
2022-10-16T08:37:57.331Z,17.30
2022-10-16T08:40:28.324Z,17.40
2022-10-16T08:43:35.998Z,17.50
2022-10-16T08:46:29.492Z,17.60
2022-10-16T08:48:59.428Z,17.70
2022-10-16T08:51:28.424Z,17.80
2022-10-16T08:54:06.836Z,17.90
2022-10-16T08:56:34.416Z,18.00
2022-10-16T08:59:03.093Z,18.00
2022-10-16T09:01:45.892Z,18.10
2022-10-16T09:04:56.526Z,18.20
2022-10-16T09:07:50.420Z,18.30
2022-10-16T09:10:23.663Z,18.40
2022-10-16T09:13:16.004Z,18.50
2022-10-16T09:16:12.352Z,18.70
2022-10-16T09:19:04.396Z,18.70
2022-10-16T09:21:36.187Z,18.80
2022-10-16T09:24:14.537Z,19.00
2022-10-16T09:26:42.258Z,19.10
2022-10-16T09:29:14.230Z,19.10
2022-10-16T09:31:42.675Z,19.20
2022-10-16T09:34:37.703Z,19.40
2022-10-16T09:37:11.121Z,19.60
2022-10-16T09:39:52.685Z,19.60
2022-10-16T09:42:27.823Z,19.70
2022-10-16T09:44:55.215Z,19.90
2022-10-16T09:47:26.206Z,20.00
2022-10-16T09:50:02.345Z,20.10
2022-10-16T09:52:31.098Z,20.20
2022-10-16T09:55:00.528Z,20.30
2022-10-16T09:57:28.583Z,20.30
2022-10-16T09:59:58.045Z,20.40
2022-10-16T10:02:39.172Z,20.50
2022-10-16T10:05:18.317Z,20.50
2022-10-16T10:07:50.192Z,20.50
2022-10-16T10:10:29.847Z,20.50
2022-10-16T10:12:57.732Z,20.50
2022-10-16T10:15:27.663Z,20.60
2022-10-16T10:17:56.988Z,20.70
2022-10-16T10:20:35.617Z,20.70
2022-10-16T10:23:23.124Z,20.80
2022-10-16T10:25:53.709Z,20.90
2022-10-16T10:28:46.006Z,21.00
2022-10-16T10:31:24.239Z,21.00
2022-10-16T10:34:08.267Z,21.10
2022-10-16T10:36:38.554Z,21.20
2022-10-16T10:39:29.529Z,21.30
2022-10-16T10:42:15.203Z,21.30
2022-10-16T10:45:16.395Z,21.40
2022-10-16T10:47:49.667Z,21.40
2022-10-16T10:50:42.473Z,21.50
2022-10-16T10:53:31.511Z,21.50
2022-10-16T10:56:40.204Z,21.60
2022-10-16T10:59:26.222Z,21.70
2022-10-16T11:02:11.902Z,21.80
2022-10-16T11:05:19.379Z,21.90
2022-10-16T11:07:53.777Z,22.00
2022-10-16T11:10:28.168Z,22.00
2022-10-16T11:13:21.224Z,22.10
2022-10-16T11:15:51.639Z,22.10
2022-10-16T11:18:25.770Z,22.10
2022-10-16T11:21:01.147Z,22.20
2022-10-16T11:23:42.928Z,22.30
2022-10-16T11:26:20.155Z,22.30
2022-10-16T11:28:53.216Z,22.20
2022-10-16T11:31:36.090Z,22.30
2022-10-16T11:34:12.860Z,22.30
2022-10-16T11:36:49.948Z,22.40
2022-10-16T11:39:30.512Z,22.40
2022-10-16T11:42:17.202Z,22.40
2022-10-16T11:45:05.912Z,22.50
2022-10-16T11:47:58.307Z,22.60
2022-10-16T11:50:39.603Z,22.70
2022-10-16T11:53:18.453Z,22.80
2022-10-16T11:55:47.287Z,22.90
2022-10-16T11:58:26.116Z,23.00
2022-10-16T12:01:18.823Z,23.00
2022-10-16T12:04:09.197Z,23.00
2022-10-16T12:06:48.104Z,23.00
2022-10-16T12:09:25.168Z,23.00
2022-10-16T12:11:52.887Z,22.80
2022-10-16T12:14:28.408Z,22.90
2022-10-16T12:17:03.256Z,22.90
2022-10-16T12:19:31.360Z,23.00
2022-10-16T12:22:03.341Z,23.00
2022-10-16T12:24:33.560Z,23.00
2022-10-16T12:27:01.535Z,23.10
2022-10-16T12:29:33.509Z,23.10
2022-10-16T12:32:01.789Z,23.20
2022-10-16T12:34:44.051Z,23.20
2022-10-16T12:37:19.396Z,23.30
2022-10-16T12:39:47.770Z,23.30
2022-10-16T12:42:27.343Z,23.30
2022-10-16T12:44:55.730Z,23.30
2022-10-16T12:47:32.044Z,23.40
2022-10-16T12:50:02.254Z,23.40
2022-10-16T12:52:40.663Z,23.50
2022-10-16T12:55:19.875Z,23.50
2022-10-16T12:58:05.480Z,23.50
2022-10-16T13:00:46.795Z,23.50
2022-10-16T13:03:55.548Z,23.50
2022-10-16T13:06:40.269Z,23.50
2022-10-16T13:09:30.815Z,23.50
2022-10-16T13:12:16.774Z,23.60
2022-10-16T13:15:19.807Z,23.60
2022-10-16T13:17:59.255Z,23.60
2022-10-16T13:20:35.714Z,23.50
2022-10-16T13:23:17.980Z,23.60
2022-10-16T13:26:00.425Z,23.60
2022-10-16T13:28:33.980Z,23.60
2022-10-16T13:31:02.580Z,23.70
2022-10-16T13:33:38.778Z,23.70
2022-10-16T13:36:07.384Z,23.70
2022-10-16T13:38:36.789Z,23.70
2022-10-16T13:41:18.034Z,23.70
2022-10-16T13:43:52.371Z,23.80
2022-10-16T13:46:22.200Z,23.80
2022-10-16T13:49:21.143Z,23.80
2022-10-16T13:51:59.732Z,23.80
2022-10-16T13:54:29.699Z,23.80
2022-10-16T13:57:03.228Z,23.80
2022-10-16T13:59:39.830Z,23.80
2022-10-16T14:02:20.900Z,23.80
2022-10-16T14:04:49.597Z,23.90
2022-10-16T14:07:25.091Z,23.90
2022-10-16T14:09:53.842Z,23.90
2022-10-16T14:12:27.049Z,23.90
2022-10-16T14:14:58.211Z,24.00
2022-10-16T14:17:33.315Z,24.00
2022-10-16T14:20:06.175Z,24.00
2022-10-16T14:22:40.991Z,24.00
2022-10-16T14:25:28.629Z,24.00
2022-10-16T14:28:26.837Z,24.00
2022-10-16T14:30:59.036Z,23.90
2022-10-16T14:33:34.814Z,24.00
2022-10-16T14:36:12.726Z,24.00
2022-10-16T14:38:49.123Z,24.00
2022-10-16T14:41:16.576Z,24.00
2022-10-16T14:43:48.619Z,24.00
2022-10-16T14:49:01.784Z,24.00
2022-10-16T14:51:29.187Z,23.90
2022-10-16T14:54:00.023Z,23.90
2022-10-16T14:56:33.256Z,23.90
2022-10-16T14:59:01.828Z,23.80
2022-10-16T15:01:29.010Z,23.70
2022-10-16T15:03:56.422Z,23.60
2022-10-16T15:06:23.648Z,23.50
2022-10-16T15:08:50.864Z,23.40
2022-10-16T15:11:19.780Z,23.30
2022-10-16T15:13:47.586Z,23.30
2022-10-16T15:16:17.258Z,23.10
2022-10-16T15:18:44.859Z,23.10
2022-10-16T15:21:24.225Z,23.00
2022-10-16T15:23:51.811Z,22.90
2022-10-16T15:26:19.028Z,22.80
2022-10-16T15:28:46.359Z,22.80
2022-10-16T15:31:13.531Z,22.70
2022-10-16T15:33:40.723Z,22.70
2022-10-16T15:36:08.732Z,22.60
2022-10-16T15:38:36.253Z,22.50
2022-10-16T15:41:03.522Z,22.40
2022-10-16T15:43:31.026Z,22.30
2022-10-16T15:46:05.996Z,22.30
2022-10-16T15:48:34.092Z,22.20
2022-10-16T15:51:05.248Z,22.10
2022-10-16T15:53:32.524Z,22.00
2022-10-16T15:56:06.111Z,22.00
2022-10-16T15:58:33.957Z,21.90
2022-10-16T16:01:02.462Z,21.80
2022-10-16T16:03:31.447Z,21.70
2022-10-16T16:05:58.943Z,21.60
2022-10-16T16:08:26.316Z,21.50
2022-10-16T16:11:02.016Z,21.40
2022-10-16T16:13:29.488Z,21.30
2022-10-16T16:15:56.909Z,21.20
2022-10-16T16:18:24.873Z,21.10
2022-10-16T16:20:52.693Z,21.00
2022-10-16T16:23:20.925Z,20.90
2022-10-16T16:26:03.825Z,20.80
2022-10-16T16:28:31.462Z,20.70
2022-10-16T16:30:58.725Z,20.60
2022-10-16T16:33:26.291Z,20.50
2022-10-16T16:35:59.187Z,20.40
2022-10-16T16:38:27.084Z,20.40
2022-10-16T16:40:56.318Z,20.20
2022-10-16T16:43:28.271Z,20.10
2022-10-16T16:45:55.810Z,20.00
2022-10-16T16:48:23.309Z,19.90
2022-10-16T16:50:50.594Z,19.80
2022-10-16T16:53:17.773Z,19.70
2022-10-16T16:55:45.064Z,19.60
2022-10-16T16:58:12.339Z,19.50
2022-10-16T17:00:56.447Z,19.50
2022-10-16T17:03:24.455Z,19.30
2022-10-16T17:06:03.327Z,19.20
2022-10-16T17:08:30.871Z,19.20
2022-10-16T17:10:58.716Z,19.10
2022-10-16T17:13:27.984Z,19.00
2022-10-16T17:15:55.603Z,19.00
2022-10-16T17:18:24.394Z,18.90
2022-10-16T17:20:51.757Z,18.90
2022-10-16T17:23:20.077Z,18.80
2022-10-16T17:25:47.501Z,18.70
2022-10-16T17:28:14.736Z,18.60
2022-10-16T17:30:42.927Z,18.50
2022-10-16T17:33:11.375Z,18.50
2022-10-16T17:35:46.521Z,18.40
2022-10-16T17:38:16.643Z,18.30
2022-10-16T17:40:43.998Z,18.30
2022-10-16T17:43:11.124Z,18.20
2022-10-16T17:45:39.107Z,18.10
2022-10-16T17:48:07.236Z,18.00
2022-10-16T17:50:34.405Z,17.90
2022-10-16T17:53:01.708Z,17.90
2022-10-16T17:55:28.899Z,17.90
2022-10-16T17:57:56.036Z,17.80
2022-10-16T18:00:23.469Z,17.60
2022-10-16T18:02:50.769Z,17.70
2022-10-16T18:05:17.953Z,17.60
2022-10-16T18:07:45.200Z,17.50
2022-10-16T18:10:12.602Z,17.50
2022-10-16T18:12:40.389Z,17.40
2022-10-16T18:15:08.311Z,17.40
2022-10-16T18:17:38.035Z,17.30
2022-10-16T18:20:06.986Z,17.30
2022-10-16T18:22:36.012Z,17.30
2022-10-16T18:25:07.133Z,17.30
2022-10-16T18:27:34.889Z,17.20
2022-10-16T18:30:02.164Z,17.10
2022-10-16T18:32:29.444Z,17.10
2022-10-16T18:34:56.635Z,17.00
2022-10-16T18:37:23.889Z,17.00
2022-10-16T18:39:51.066Z,16.90
2022-10-16T18:42:18.528Z,16.90
2022-10-16T18:44:47.910Z,16.90
2022-10-16T18:47:17.569Z,16.70
2022-10-16T18:49:46.648Z,16.70
2022-10-16T18:52:13.800Z,16.70
2022-10-16T18:54:40.961Z,16.70
2022-10-16T18:57:08.096Z,16.60
2022-10-16T18:59:35.284Z,16.70
2022-10-16T19:02:02.609Z,16.60
2022-10-16T19:04:29.816Z,16.50
2022-10-16T19:06:57.033Z,16.40
2022-10-16T19:09:25.677Z,16.30
2022-10-16T19:14:25.256Z,16.20
2022-10-16T19:16:52.467Z,16.30
2022-10-16T19:19:19.959Z,16.20
2022-10-16T19:21:48.313Z,16.10
2022-10-16T19:24:16.364Z,16.10
2022-10-16T19:26:43.857Z,16.00
2022-10-16T19:29:12.036Z,16.00
2022-10-16T19:31:39.953Z,15.90
2022-10-16T19:34:08.101Z,15.80
2022-10-16T19:36:37.230Z,15.80
2022-10-16T19:39:14.116Z,15.70
2022-10-16T19:41:41.635Z,15.60
2022-10-16T19:44:11.264Z,15.60
2022-10-16T19:46:38.896Z,15.50
2022-10-16T19:49:08.753Z,15.60
2022-10-16T19:51:36.693Z,15.60
2022-10-16T19:54:07.089Z,15.50
2022-10-16T19:56:35.836Z,15.60
2022-10-16T19:59:04.924Z,15.50
2022-10-16T20:01:32.604Z,15.40
2022-10-16T20:03:59.984Z,15.40
2022-10-16T20:06:27.504Z,15.40
2022-10-16T20:08:55.468Z,15.30
2022-10-16T20:11:29.120Z,15.30
2022-10-16T20:13:57.020Z,15.20
2022-10-16T20:16:25.476Z,15.20
2022-10-16T20:18:53.285Z,15.10
2022-10-16T20:21:25.966Z,15.10
2022-10-16T20:23:53.759Z,15.10
2022-10-16T20:26:23.915Z,15.20
2022-10-16T20:28:51.875Z,15.00
2022-10-16T20:31:22.741Z,15.00
2022-10-16T20:33:51.253Z,14.90
2022-10-16T20:36:20.243Z,14.90
2022-10-16T20:38:47.455Z,14.80
2022-10-16T20:41:16.052Z,14.80
2022-10-16T20:43:48.710Z,14.70
2022-10-16T20:46:18.756Z,14.70
2022-10-16T20:48:47.015Z,14.60
2022-10-16T20:51:20.526Z,14.60
2022-10-16T20:53:51.567Z,14.60
2022-10-16T20:56:18.728Z,14.60
2022-10-16T20:58:46.301Z,14.50
2022-10-16T21:01:16.899Z,14.40
2022-10-16T21:03:44.615Z,14.50
2022-10-16T21:06:12.207Z,14.40
2022-10-16T21:08:42.578Z,14.40
2022-10-16T21:11:25.407Z,14.30
2022-10-16T21:13:53.983Z,14.30
2022-10-16T21:16:21.463Z,14.20
2022-10-16T21:18:48.703Z,14.30
2022-10-16T21:21:26.128Z,14.20
2022-10-16T21:23:53.782Z,14.10
2022-10-16T21:26:25.975Z,14.10
2022-10-16T21:29:04.496Z,14.10
2022-10-16T21:31:33.122Z,14.10
2022-10-16T21:34:00.462Z,14.00
2022-10-16T21:36:30.058Z,13.90
2022-10-16T21:39:01.734Z,14.00
2022-10-16T21:41:29.746Z,13.90
2022-10-16T21:43:58.475Z,14.00
2022-10-16T21:46:28.642Z,13.90
2022-10-16T21:48:57.108Z,13.90
2022-10-16T21:51:34.966Z,13.90
2022-10-16T21:54:04.045Z,13.80
2022-10-16T21:56:31.768Z,13.80
2022-10-16T21:58:59.136Z,13.80
2022-10-16T22:01:28.039Z,13.70
2022-10-16T22:03:55.718Z,13.80
2022-10-16T22:06:27.185Z,13.70
2022-10-16T22:08:57.560Z,13.60
2022-10-16T22:11:36.565Z,13.70
2022-10-16T22:14:05.507Z,13.60
2022-10-16T22:16:33.532Z,13.60
2022-10-16T22:19:03.445Z,13.60
2022-10-16T22:21:32.295Z,13.60
2022-10-16T22:24:00.388Z,13.60
2022-10-16T22:26:27.975Z,13.50
2022-10-16T22:28:56.016Z,13.50
2022-10-16T22:31:23.919Z,13.50
2022-10-16T22:34:02.341Z,13.40
2022-10-16T22:36:30.435Z,13.40
2022-10-16T22:38:58.815Z,13.30
2022-10-16T22:41:26.257Z,13.30
2022-10-16T22:43:53.552Z,13.30
2022-10-16T22:46:27.055Z,13.30
2022-10-16T22:48:55.908Z,13.40
2022-10-16T22:51:25.431Z,13.20
2022-10-16T22:53:52.651Z,13.20
2022-10-16T22:56:21.584Z,13.20
2022-10-16T22:58:49.415Z,13.10
2022-10-16T23:01:18.655Z,13.10
2022-10-16T23:03:45.999Z,13.20
2022-10-16T23:06:13.275Z,13.10
2022-10-16T23:08:40.771Z,13.10
2022-10-16T23:11:10.140Z,13.10
2022-10-16T23:13:39.705Z,13.10
2022-10-16T23:16:07.352Z,13.10
2022-10-16T23:18:35.092Z,13.10
2022-10-16T23:21:11.140Z,13.10
2022-10-16T23:23:39.311Z,13.10
2022-10-16T23:26:14.774Z,13.00
2022-10-16T23:28:42.595Z,13.00
2022-10-16T23:31:11.187Z,13.00
2022-10-16T23:33:39.234Z,13.00
2022-10-16T23:36:08.670Z,12.90
2022-10-16T23:38:36.468Z,12.90
2022-10-16T23:41:03.809Z,12.80
2022-10-16T23:43:31.303Z,12.80
2022-10-16T23:45:58.548Z,12.70
2022-10-16T23:48:25.760Z,12.70
2022-10-16T23:50:52.941Z,12.70
2022-10-16T23:53:20.582Z,12.70
2022-10-16T23:55:47.712Z,12.60
2022-10-16T23:58:15.058Z,12.60
